createdAt,value
2018-07-12T00:01:58.693Z,8.80
2018-07-12T00:04:26.450Z,9.23
2018-07-12T00:06:54.474Z,8.60
2018-07-12T00:09:22.204Z,9.33
2018-07-12T00:11:49.992Z,10.50
2018-07-12T00:14:17.724Z,9.83
2018-07-12T00:16:45.456Z,11.70
2018-07-12T00:19:13.231Z,10.93
2018-07-12T00:21:40.997Z,10.90
2018-07-12T00:24:08.991Z,9.83
2018-07-12T00:26:36.793Z,11.50
2018-07-12T00:29:04.543Z,10.67
2018-07-12T00:31:32.280Z,9.80
2018-07-12T00:34:00.034Z,9.83
2018-07-12T00:36:27.746Z,9.70
2018-07-12T00:38:55.503Z,9.53
2018-07-12T00:41:23.287Z,11.40
2018-07-12T00:43:51.052Z,10.70
2018-07-12T00:46:18.803Z,11.83
2018-07-12T00:48:46.586Z,9.90
2018-07-12T00:51:14.336Z,11.27
2018-07-12T00:53:42.073Z,11.50
2018-07-12T00:56:09.828Z,9.63
2018-07-12T00:58:37.578Z,10.40
2018-07-12T01:01:05.304Z,11.30
2018-07-12T01:03:33.064Z,9.70
2018-07-12T01:06:00.831Z,10.13
2018-07-12T01:08:28.549Z,9.17
2018-07-12T01:10:57.174Z,10.47
2018-07-12T01:13:24.960Z,10.17
2018-07-12T01:15:52.965Z,10.00
2018-07-12T01:18:20.799Z,9.57
2018-07-12T01:20:48.818Z,11.77
2018-07-12T01:23:16.583Z,10.33
2018-07-12T01:25:44.387Z,10.60
2018-07-12T01:28:12.144Z,10.60
2018-07-12T01:30:39.894Z,11.63
2018-07-12T01:33:07.655Z,10.97
2018-07-12T01:35:35.368Z,10.53
2018-07-12T01:38:03.138Z,11.00
2018-07-12T01:40:30.983Z,11.53
2018-07-12T01:42:58.777Z,9.90
2018-07-12T01:45:26.509Z,10.53
2018-07-12T01:47:54.529Z,11.07
2018-07-12T01:50:22.246Z,9.43
2018-07-12T01:52:49.958Z,8.57
2018-07-12T01:55:17.694Z,9.07
2018-07-12T01:57:45.412Z,9.87
2018-07-12T02:00:13.291Z,9.07
2018-07-12T02:02:41.368Z,10.83
2018-07-12T02:05:09.368Z,8.80
2018-07-12T02:07:37.087Z,9.67
2018-07-12T02:10:04.842Z,9.63
2018-07-12T02:12:32.591Z,9.90
2018-07-12T02:15:00.325Z,14.03
2018-07-12T02:17:28.119Z,12.40
2018-07-12T02:19:55.902Z,13.90
2018-07-12T02:22:23.693Z,11.13
2018-07-12T02:24:51.689Z,9.90
2018-07-12T02:27:19.498Z,11.50
2018-07-12T02:29:47.222Z,8.50
2018-07-12T02:32:14.994Z,9.27
2018-07-12T02:34:42.740Z,10.47
2018-07-12T02:37:10.494Z,9.47
2018-07-12T02:39:38.237Z,9.07
2018-07-12T02:42:06.203Z,9.50
2018-07-12T02:44:33.924Z,8.57
2018-07-12T02:47:01.696Z,8.23
2018-07-12T02:49:29.408Z,8.37
2018-07-12T02:51:57.427Z,8.83
2018-07-12T02:54:25.166Z,10.17
2018-07-12T02:56:52.879Z,8.80
2018-07-12T02:59:20.599Z,8.70
2018-07-12T03:01:48.371Z,9.27
2018-07-12T03:04:16.126Z,9.20
2018-07-12T03:06:43.843Z,9.83
2018-07-12T03:09:11.839Z,9.30
2018-07-12T03:11:39.556Z,8.67
2018-07-12T03:14:07.268Z,9.00
2018-07-12T03:16:35.032Z,8.27
2018-07-12T03:19:02.753Z,9.40
2018-07-12T03:21:30.494Z,10.13
2018-07-12T03:23:58.258Z,9.30
2018-07-12T03:26:25.978Z,9.47
2018-07-12T03:28:53.776Z,9.00
2018-07-12T03:31:21.521Z,9.63
2018-07-12T03:33:49.241Z,9.97
2018-07-12T03:36:17.259Z,8.67
2018-07-12T03:38:45.018Z,9.30
2018-07-12T03:41:12.739Z,9.07
2018-07-12T03:43:40.447Z,9.27
2018-07-12T03:46:08.204Z,9.10
2018-07-12T03:48:35.908Z,9.53
2018-07-12T03:51:03.624Z,9.50
2018-07-12T03:53:31.385Z,8.60
2018-07-12T03:55:59.120Z,10.53
2018-07-12T03:58:27.103Z,9.63
2018-07-12T04:00:55.105Z,8.27
2018-07-12T04:03:22.855Z,9.07
2018-07-12T04:05:50.565Z,9.80
2018-07-12T04:08:18.312Z,9.77
2018-07-12T04:10:46.039Z,9.37
2018-07-12T04:13:13.785Z,9.93
2018-07-12T04:15:41.790Z,9.50
2018-07-12T04:18:09.514Z,10.70
2018-07-12T04:20:37.210Z,9.50
2018-07-12T04:23:04.965Z,9.57
2018-07-12T04:25:32.671Z,10.40
2018-07-12T04:28:00.377Z,10.73
2018-07-12T04:30:28.420Z,10.40
2018-07-12T04:32:56.121Z,9.63
2018-07-12T04:35:23.864Z,9.83
2018-07-12T04:37:51.951Z,9.50
2018-07-12T04:40:19.932Z,10.10
2018-07-12T04:42:47.877Z,9.40
2018-07-12T04:45:15.862Z,9.60
2018-07-12T04:47:43.601Z,9.23
2018-07-12T04:50:11.571Z,9.60
2018-07-12T04:52:39.356Z,9.40
2018-07-12T04:55:07.104Z,9.47
2018-07-12T04:57:35.125Z,9.03
2018-07-12T05:00:02.983Z,8.77
2018-07-12T05:02:30.756Z,8.73
2018-07-12T05:04:58.500Z,9.00
2018-07-12T05:07:26.230Z,8.43
2018-07-12T05:09:54.312Z,8.87
2018-07-12T05:12:22.021Z,8.23
2018-07-12T05:14:49.764Z,8.17
2018-07-12T05:17:17.491Z,10.27
2018-07-12T05:19:45.523Z,8.63
2018-07-12T05:22:13.277Z,8.90
2018-07-12T05:24:41.018Z,8.53
2018-07-12T05:27:08.749Z,8.23
2018-07-12T05:29:36.755Z,9.27
2018-07-12T05:32:04.444Z,8.40
2018-07-12T05:34:32.214Z,8.97
2018-07-12T05:37:02.538Z,9.27
2018-07-12T05:39:31.820Z,7.80
2018-07-12T05:42:01.105Z,8.93
2018-07-12T05:44:30.400Z,8.83
2018-07-12T05:46:59.688Z,10.40
2018-07-12T05:49:28.963Z,10.53
2018-07-12T05:51:57.708Z,11.87
2018-07-12T05:54:26.986Z,11.10
2018-07-12T05:56:56.329Z,11.63
2018-07-12T05:59:26.052Z,10.30
2018-07-12T06:02:00.198Z,11.93
2018-07-12T06:04:29.585Z,11.17
2018-07-12T06:06:58.976Z,12.67
2018-07-12T06:09:28.894Z,10.27
2018-07-12T06:11:58.187Z,14.37
2018-07-12T06:14:27.550Z,14.13
2018-07-12T06:16:56.926Z,12.90
2018-07-12T06:19:26.274Z,13.93
2018-07-12T06:21:55.828Z,13.43
2018-07-12T06:24:25.272Z,14.37
2018-07-12T06:26:54.626Z,13.27
2018-07-12T06:29:23.962Z,14.80
2018-07-12T06:31:53.276Z,14.40
2018-07-12T06:34:22.558Z,14.50
2018-07-12T06:36:51.974Z,17.13
2018-07-12T06:39:21.521Z,15.67
2018-07-12T06:41:50.842Z,15.67
2018-07-12T06:44:20.200Z,15.83
2018-07-12T06:46:49.587Z,15.00
2018-07-12T06:49:19.334Z,18.50
2018-07-12T06:51:48.823Z,15.40
2018-07-12T06:54:18.178Z,17.00
2018-07-12T06:56:47.483Z,17.00
2018-07-12T06:59:16.809Z,17.77
2018-07-12T07:01:46.118Z,16.43
2018-07-12T07:04:15.482Z,17.17
2018-07-12T07:06:44.779Z,17.43
2018-07-12T07:09:14.113Z,20.10
2018-07-12T07:11:43.596Z,18.50
2018-07-12T07:14:12.948Z,18.40
2018-07-12T07:16:42.305Z,18.67
2018-07-12T07:19:11.675Z,18.50
2018-07-12T07:21:40.954Z,19.20
2018-07-12T07:24:10.351Z,18.47
2018-07-12T07:26:39.181Z,17.97
2018-07-12T07:29:08.552Z,18.80
2018-07-12T07:31:37.860Z,18.10
2018-07-12T07:34:07.220Z,17.10
2018-07-12T07:36:36.524Z,18.57
2018-07-12T07:39:07.842Z,16.60
2018-07-12T07:41:37.124Z,19.07
2018-07-12T07:44:06.494Z,16.17
2018-07-12T07:46:35.828Z,12.53
2018-07-12T07:49:05.184Z,14.30
2018-07-12T07:51:34.546Z,13.90
2018-07-12T07:54:03.876Z,13.50
2018-07-12T07:56:33.139Z,13.97
2018-07-12T07:59:02.470Z,14.13
2018-07-12T08:01:31.755Z,13.13
2018-07-12T08:04:01.066Z,13.37
2018-07-12T08:06:30.367Z,13.30
2018-07-12T08:08:59.648Z,14.57
2018-07-12T08:11:28.993Z,14.90
2018-07-12T08:13:58.405Z,13.00
2018-07-12T08:16:27.683Z,13.70
2018-07-12T08:18:56.984Z,13.50
2018-07-12T08:21:26.277Z,12.60
2018-07-12T08:23:55.574Z,14.30
2018-07-12T08:26:24.862Z,14.73
2018-07-12T08:28:54.171Z,16.83
2018-07-12T08:31:23.526Z,13.30
2018-07-12T08:33:52.812Z,15.37
2018-07-12T08:36:22.191Z,14.20
2018-07-12T08:38:51.485Z,15.20
2018-07-12T08:41:20.898Z,13.63
2018-07-12T08:43:50.304Z,14.50
2018-07-12T08:46:19.174Z,14.53
2018-07-12T08:48:48.402Z,13.67
2018-07-12T08:51:17.707Z,13.73
2018-07-12T08:53:47.000Z,14.10
2018-07-12T08:56:15.811Z,14.30
2018-07-12T08:58:45.303Z,13.40
2018-07-12T09:01:14.601Z,13.57
2018-07-12T09:03:43.835Z,13.80
2018-07-12T09:06:13.158Z,13.57
2018-07-12T09:08:42.457Z,14.17
2018-07-12T09:11:11.735Z,13.40
2018-07-12T09:13:41.089Z,14.20
2018-07-12T09:16:10.422Z,14.90
2018-07-12T09:18:39.890Z,14.63
2018-07-12T09:21:08.754Z,14.57
2018-07-12T09:23:38.089Z,14.57
2018-07-12T09:26:08.596Z,13.97
2018-07-12T09:28:37.868Z,13.70
2018-07-12T09:31:07.171Z,14.60
2018-07-12T09:33:36.498Z,14.13
2018-07-12T09:36:05.309Z,15.80
2018-07-12T09:38:50.717Z,14.97
2018-07-12T09:41:21.011Z,12.37
2018-07-12T09:43:50.818Z,15.43
2018-07-12T09:46:21.040Z,14.93
2018-07-12T09:48:51.556Z,15.80
2018-07-12T09:51:20.871Z,15.20
2018-07-12T09:53:50.207Z,15.93
2018-07-12T09:56:19.627Z,14.83
2018-07-12T09:58:49.159Z,15.47
2018-07-12T10:01:23.275Z,14.70
2018-07-12T10:03:54.124Z,16.63
2018-07-12T10:06:26.377Z,16.97
2018-07-12T10:08:57.939Z,16.33
2018-07-12T10:11:32.357Z,14.13
2018-07-12T10:14:06.754Z,17.40
2018-07-12T10:16:41.217Z,15.07
2018-07-12T10:19:10.525Z,16.00
2018-07-12T10:21:39.762Z,16.93
2018-07-12T10:24:09.065Z,16.83
2018-07-12T10:26:38.315Z,16.70
2018-07-12T10:29:07.680Z,17.97
2018-07-12T10:31:37.043Z,16.13
2018-07-12T10:34:06.311Z,18.23
2018-07-12T10:36:35.595Z,18.33
2018-07-12T10:39:07.177Z,17.80
2018-07-12T10:41:36.494Z,18.63
2018-07-12T10:44:06.107Z,19.30
2018-07-12T10:46:35.466Z,19.40
2018-07-12T10:49:04.783Z,16.87
2018-07-12T10:51:34.050Z,18.03
2018-07-12T10:54:03.386Z,18.90
2018-07-12T10:56:32.842Z,19.40
2018-07-12T10:59:02.364Z,21.90
2018-07-12T11:01:31.698Z,20.40
2018-07-12T11:04:01.126Z,20.07
2018-07-12T11:06:30.513Z,21.20
2018-07-12T11:08:59.882Z,20.00
2018-07-12T11:11:28.711Z,20.40
2018-07-12T11:13:58.062Z,19.37
2018-07-12T11:16:27.340Z,20.33
2018-07-12T11:18:56.631Z,18.70
2018-07-12T11:21:25.923Z,20.50
2018-07-12T11:23:55.216Z,18.20
2018-07-12T11:26:24.755Z,20.20
2018-07-12T11:28:54.131Z,18.20
2018-07-12T11:31:23.960Z,19.63
2018-07-12T11:33:53.356Z,18.60
2018-07-12T11:36:22.667Z,18.50
2018-07-12T11:38:51.539Z,18.50
2018-07-12T11:41:20.936Z,17.00
2018-07-12T11:43:50.283Z,19.30
2018-07-12T11:46:19.246Z,19.40
2018-07-12T11:48:48.620Z,18.10
2018-07-12T11:51:18.043Z,18.60
2018-07-12T11:53:47.345Z,18.57
2018-07-12T11:56:16.675Z,18.17
2018-07-12T11:58:46.002Z,19.03
2018-07-12T12:01:15.368Z,20.30
2018-07-12T12:03:44.767Z,18.67
2018-07-12T12:06:14.107Z,18.00
2018-07-12T12:08:43.493Z,18.57
2018-07-12T12:11:12.270Z,18.87
2018-07-12T12:13:41.650Z,16.73
2018-07-12T12:16:10.957Z,18.17
2018-07-12T12:18:40.452Z,17.20
2018-07-12T12:21:09.784Z,17.37
2018-07-12T12:23:38.809Z,16.93
2018-07-12T12:26:07.788Z,16.60
2018-07-12T12:28:37.462Z,18.37
2018-07-12T12:31:08.643Z,16.03
2018-07-12T12:33:38.092Z,17.07
2018-07-12T12:36:07.489Z,18.10
2018-07-12T12:38:36.855Z,16.70
2018-07-12T12:41:06.257Z,18.77
2018-07-12T12:43:35.599Z,18.00
2018-07-12T12:46:04.993Z,17.77
2018-07-12T12:48:34.372Z,16.63
2018-07-12T12:51:03.733Z,16.60
2018-07-12T12:53:33.089Z,16.57
2018-07-12T12:56:02.460Z,16.47
2018-07-12T12:58:31.824Z,15.93
2018-07-12T13:01:01.228Z,17.33
2018-07-12T13:03:30.588Z,17.63
2018-07-12T13:05:59.988Z,17.13
2018-07-12T13:08:29.279Z,17.53
2018-07-12T13:10:58.586Z,17.40
2018-07-12T13:13:27.825Z,17.70
2018-07-12T13:15:57.202Z,17.90
2018-07-12T13:18:26.592Z,18.93
2018-07-12T13:20:55.916Z,16.73
2018-07-12T13:23:25.207Z,17.80
2018-07-12T13:25:54.634Z,17.07
2018-07-12T13:28:23.908Z,19.67
2018-07-12T13:30:53.720Z,18.10
2018-07-12T13:33:23.076Z,16.63
2018-07-12T13:35:51.842Z,17.93
2018-07-12T13:38:21.315Z,16.87
2018-07-12T13:40:50.703Z,18.83
2018-07-12T13:43:20.333Z,19.80
2018-07-12T13:45:49.825Z,17.10
2018-07-12T13:48:19.211Z,17.53
2018-07-12T13:50:48.546Z,17.10
2018-07-12T13:53:17.944Z,17.03
2018-07-12T13:55:47.324Z,18.07
2018-07-12T13:58:16.824Z,18.23
2018-07-12T14:00:46.166Z,17.47
2018-07-12T14:03:15.766Z,17.53
2018-07-12T14:05:45.233Z,17.83
2018-07-12T14:08:14.713Z,17.90
2018-07-12T14:10:44.063Z,17.53
2018-07-12T14:13:13.382Z,17.37
2018-07-12T14:15:42.702Z,17.47
2018-07-12T14:18:11.448Z,18.30
2018-07-12T14:20:40.809Z,19.50
2018-07-12T14:23:10.413Z,17.43
2018-07-12T14:25:39.783Z,17.23
2018-07-12T14:28:09.125Z,16.37
2018-07-12T14:30:38.485Z,16.50
2018-07-12T14:33:07.997Z,16.37
2018-07-12T14:35:37.665Z,18.57
2018-07-12T14:38:06.968Z,16.17
2018-07-12T14:40:36.345Z,16.73
2018-07-12T14:43:05.738Z,16.87
2018-07-12T14:45:34.616Z,17.13
2018-07-12T14:48:03.431Z,16.50
2018-07-12T14:50:32.712Z,16.90
2018-07-12T14:53:02.095Z,16.60
2018-07-12T14:55:31.586Z,17.67
2018-07-12T14:58:01.757Z,17.03
2018-07-12T15:00:31.254Z,19.53
2018-07-12T15:03:00.837Z,17.80
2018-07-12T15:05:30.258Z,18.77
2018-07-12T15:07:59.845Z,18.00
2018-07-12T15:10:29.158Z,18.10
2018-07-12T15:12:58.086Z,17.43
2018-07-12T15:15:27.428Z,19.97
2018-07-12T15:17:56.898Z,17.97
2018-07-12T15:20:26.237Z,17.23
2018-07-12T15:22:55.737Z,18.03
2018-07-12T15:25:25.144Z,17.60
2018-07-12T15:27:54.606Z,16.43
2018-07-12T15:30:30.383Z,17.93
2018-07-12T15:32:59.739Z,16.10
2018-07-12T15:35:29.179Z,18.77
2018-07-12T15:37:58.454Z,15.90
2018-07-12T15:40:27.759Z,17.07
2018-07-12T15:42:57.035Z,18.13
2018-07-12T15:45:26.296Z,17.30
2018-07-12T15:47:55.580Z,18.10
2018-07-12T15:50:26.389Z,17.00
2018-07-12T15:52:57.263Z,16.17
2018-07-12T15:55:26.647Z,17.60
2018-07-12T15:57:55.935Z,18.77
2018-07-12T16:00:25.291Z,20.17
2018-07-12T16:02:54.062Z,17.53
2018-07-12T16:05:23.430Z,18.03
2018-07-12T16:07:52.723Z,20.70
2018-07-12T16:10:22.096Z,18.73
2018-07-12T16:12:50.840Z,19.33
2018-07-12T16:15:20.233Z,17.53
2018-07-12T16:17:49.617Z,18.80
2018-07-12T16:20:18.906Z,18.90
2018-07-12T16:22:48.314Z,18.57
2018-07-12T16:25:17.586Z,16.73
2018-07-12T16:27:46.838Z,18.27
2018-07-12T16:30:16.133Z,19.23
2018-07-12T16:32:45.443Z,17.40
2018-07-12T16:35:14.844Z,17.83
2018-07-12T16:37:44.186Z,17.50
2018-07-12T16:40:13.455Z,20.57
2018-07-12T16:42:42.839Z,18.80
2018-07-12T16:45:12.349Z,19.97
2018-07-12T16:47:41.819Z,18.67
2018-07-12T16:50:11.173Z,17.13
2018-07-12T16:52:40.674Z,18.77
2018-07-12T16:55:09.449Z,17.27
2018-07-12T16:57:38.810Z,17.27
2018-07-12T17:00:08.318Z,17.60
2018-07-12T17:02:37.728Z,15.57
2018-07-12T17:05:07.169Z,19.20
2018-07-12T17:07:36.464Z,16.93
2018-07-12T17:10:05.907Z,16.83
2018-07-12T17:12:35.219Z,15.63
2018-07-12T17:15:04.643Z,18.40
2018-07-12T17:17:34.067Z,17.33
2018-07-12T17:20:03.444Z,15.07
2018-07-12T17:22:32.783Z,15.63
2018-07-12T17:25:02.313Z,17.87
2018-07-12T17:27:31.696Z,17.60
2018-07-12T17:30:00.996Z,16.80
2018-07-12T17:32:30.388Z,18.67
2018-07-12T17:35:00.103Z,19.37
2018-07-12T17:37:30.619Z,17.23
2018-07-12T17:39:59.887Z,17.50
2018-07-12T17:42:29.758Z,16.33
2018-07-12T17:44:58.733Z,19.30
2018-07-12T17:47:28.330Z,20.10
2018-07-12T17:49:57.751Z,21.23
2018-07-12T17:52:26.638Z,24.33
2018-07-12T17:54:56.135Z,23.27
2018-07-12T17:57:25.529Z,21.73
2018-07-12T17:59:55.022Z,21.87
2018-07-12T18:02:24.917Z,19.33
2018-07-12T18:04:54.295Z,19.70
2018-07-12T18:07:24.073Z,20.00
2018-07-12T18:09:52.874Z,20.30
2018-07-12T18:12:22.147Z,18.67
2018-07-12T18:14:51.443Z,20.40
2018-07-12T18:17:20.715Z,22.27
2018-07-12T18:19:50.019Z,22.77
2018-07-12T18:22:19.484Z,21.60
2018-07-12T18:24:48.760Z,19.83
2018-07-12T18:27:18.167Z,24.07
2018-07-12T18:29:47.496Z,23.07
2018-07-12T18:32:16.221Z,22.67
2018-07-12T18:34:45.569Z,23.20
2018-07-12T18:37:14.905Z,24.60
2018-07-12T18:39:44.284Z,23.47
2018-07-12T18:42:13.155Z,26.20
2018-07-12T18:44:42.862Z,25.20
2018-07-12T18:47:12.292Z,24.77
2018-07-12T18:49:41.617Z,23.63
2018-07-12T18:52:10.950Z,23.40
2018-07-12T18:54:40.556Z,26.90
2018-07-12T18:57:09.969Z,27.53
2018-07-12T18:59:39.334Z,24.80
2018-07-12T19:02:08.664Z,25.27
2018-07-12T19:04:38.001Z,26.30
2018-07-12T19:07:06.821Z,26.60
2018-07-12T19:09:36.118Z,29.17
2018-07-12T19:12:05.423Z,27.13
2018-07-12T19:14:34.730Z,29.30
2018-07-12T19:17:04.075Z,29.63
2018-07-12T19:19:33.352Z,27.75
2018-07-12T19:22:02.696Z,29.80
2018-07-12T19:24:31.482Z,28.67
2018-07-12T19:27:00.760Z,33.57
2018-07-12T19:29:30.143Z,28.27
2018-07-12T19:31:59.398Z,28.60
2018-07-12T19:34:28.745Z,28.97
2018-07-12T19:36:58.166Z,29.70
2018-07-12T19:39:27.527Z,29.80
2018-07-12T19:41:56.815Z,30.00
2018-07-12T19:44:26.211Z,28.53
2018-07-12T19:46:55.466Z,30.43
2018-07-12T19:49:24.763Z,30.23
2018-07-12T19:51:55.445Z,28.60
2018-07-12T19:54:27.329Z,30.93
2018-07-12T19:56:57.407Z,28.97
2018-07-12T19:59:26.181Z,30.23
2018-07-12T20:01:55.508Z,27.60
2018-07-12T20:04:24.783Z,25.83
2018-07-12T20:06:54.159Z,26.60
2018-07-12T20:09:23.627Z,26.80
2018-07-12T20:11:53.066Z,27.43
2018-07-12T20:14:22.412Z,26.87
2018-07-12T20:16:51.908Z,28.80
2018-07-12T20:19:21.184Z,28.17
2018-07-12T20:21:50.594Z,26.37
2018-07-12T20:24:19.944Z,28.63
2018-07-12T20:26:49.263Z,30.20
2018-07-12T20:29:18.541Z,30.20
2018-07-12T20:31:47.833Z,30.20
2018-07-12T20:34:17.295Z,31.43
2018-07-12T20:36:46.722Z,31.90
2018-07-12T20:39:16.107Z,30.93
2018-07-12T20:41:45.468Z,31.00
2018-07-12T20:44:14.752Z,32.00
2018-07-12T20:46:44.030Z,31.43
2018-07-12T20:49:13.553Z,31.90
2018-07-12T20:51:42.945Z,32.13
2018-07-12T20:54:12.245Z,34.00
2018-07-12T20:56:41.634Z,32.87
2018-07-12T20:59:10.999Z,33.17
2018-07-12T21:01:40.434Z,29.87
2018-07-12T21:04:09.870Z,30.67
2018-07-12T21:06:39.263Z,30.57
2018-07-12T21:09:09.720Z,30.20
2018-07-12T21:11:38.977Z,31.43
2018-07-12T21:14:08.385Z,30.13
2018-07-12T21:16:37.752Z,32.00
2018-07-12T21:19:06.568Z,30.60
2018-07-12T21:21:35.891Z,28.00
2018-07-12T21:24:05.399Z,30.30
2018-07-12T21:26:35.034Z,28.73
2018-07-12T21:29:04.459Z,29.17
2018-07-12T21:31:33.903Z,30.33
2018-07-12T21:34:03.706Z,29.10
2018-07-12T21:36:33.091Z,30.33
2018-07-12T21:39:02.017Z,32.33
2018-07-12T21:41:31.326Z,30.95
2018-07-12T21:44:00.719Z,30.73
2018-07-12T21:46:30.009Z,30.55
2018-07-12T21:48:59.396Z,31.70
2018-07-12T21:51:29.251Z,30.60
2018-07-12T21:53:58.725Z,30.72
2018-07-12T21:56:28.058Z,31.90
2018-07-12T21:58:57.402Z,29.87
2018-07-12T22:01:26.377Z,30.20
2018-07-12T22:03:55.237Z,31.00
2018-07-12T22:07:36.764Z,30.30
2018-07-12T22:10:06.257Z,29.57
2018-07-12T22:12:35.528Z,29.80
2018-07-12T22:15:04.859Z,29.17
2018-07-12T22:17:34.244Z,25.80
2018-07-12T22:20:03.532Z,26.70
2018-07-12T22:22:32.910Z,24.33
2018-07-12T22:25:02.301Z,22.83
2018-07-12T22:27:31.714Z,23.53
2018-07-12T22:30:01.081Z,20.20
2018-07-12T22:32:29.904Z,20.67
2018-07-12T22:34:59.295Z,26.87
2018-07-12T22:37:28.646Z,28.33
2018-07-12T22:39:57.916Z,26.20
2018-07-12T22:42:27.214Z,31.60
2018-07-12T22:44:56.491Z,27.97
2018-07-12T22:47:25.806Z,30.13
2018-07-12T22:49:55.081Z,27.77
2018-07-12T22:52:24.357Z,29.90
2018-07-12T22:54:53.721Z,30.37
2018-07-12T22:57:22.988Z,30.70
2018-07-12T22:59:52.301Z,29.57
2018-07-12T23:02:21.618Z,30.60
2018-07-12T23:04:50.947Z,29.03
2018-07-12T23:07:20.252Z,31.13
2018-07-12T23:09:49.608Z,29.40
2018-07-12T23:12:19.029Z,29.30
2018-07-12T23:14:48.349Z,29.10
2018-07-12T23:17:17.636Z,26.73
2018-07-12T23:19:46.986Z,26.73
2018-07-12T23:22:16.341Z,29.70
2018-07-12T23:24:45.632Z,31.23
2018-07-12T23:27:14.933Z,30.47
2018-07-12T23:29:44.286Z,30.13
2018-07-12T23:32:13.579Z,29.60
2018-07-12T23:34:42.916Z,28.70
2018-07-12T23:37:12.167Z,30.43
2018-07-12T23:39:41.430Z,30.27
2018-07-12T23:42:10.757Z,31.60
2018-07-12T23:44:40.029Z,30.00
2018-07-12T23:47:09.296Z,28.87
2018-07-12T23:49:38.585Z,32.20
2018-07-12T23:52:07.963Z,28.20
2018-07-12T23:54:37.237Z,27.60
2018-07-12T23:57:06.654Z,26.47
2018-07-12T23:59:35.950Z,30.10
